createdAt,value
2018-01-06T00:01:04.576Z,100.00
2018-01-06T00:03:32.399Z,100.00
2018-01-06T00:05:59.853Z,100.00
2018-01-06T00:08:27.554Z,100.00
2018-01-06T00:10:55.537Z,100.00
2018-01-06T00:13:23.248Z,100.00
2018-01-06T00:15:51.171Z,100.00
2018-01-06T00:18:18.841Z,100.00
2018-01-06T00:20:46.644Z,100.00
2018-01-06T00:23:14.777Z,100.00
2018-01-06T00:25:42.424Z,100.00
2018-01-06T00:28:10.125Z,100.00
2018-01-06T00:30:38.080Z,100.00
2018-01-06T00:33:05.553Z,100.00
2018-01-06T00:35:33.047Z,100.00
2018-01-06T00:38:00.781Z,100.00
2018-01-06T00:40:28.248Z,100.00
2018-01-06T00:42:55.711Z,100.00
2018-01-06T00:45:23.732Z,100.00
2018-01-06T00:47:52.014Z,100.00
2018-01-06T00:50:19.635Z,100.00
2018-01-06T00:52:47.762Z,100.00
2018-01-06T00:55:15.435Z,100.00
2018-01-06T00:57:43.211Z,100.00
2018-01-06T01:00:11.278Z,100.00
2018-01-06T01:02:38.738Z,100.00
2018-01-06T01:05:08.454Z,100.00
2018-01-06T01:07:36.446Z,100.00
2018-01-06T01:10:03.929Z,100.00
2018-01-06T01:12:31.408Z,100.00
2018-01-06T01:14:59.768Z,100.00
2018-01-06T01:17:27.270Z,100.00
2018-01-06T01:19:54.739Z,100.00
2018-01-06T01:22:22.448Z,100.00
2018-01-06T01:24:49.918Z,100.00
2018-01-06T01:27:17.367Z,100.00
2018-01-06T01:29:45.384Z,100.00
2018-01-06T01:32:13.425Z,100.00
2018-01-06T01:34:40.877Z,100.00
2018-01-06T01:37:09.003Z,100.00
2018-01-06T01:39:37.151Z,100.00
2018-01-06T01:42:04.611Z,100.00
2018-01-06T01:44:32.306Z,100.00
2018-01-06T01:47:02.531Z,100.00
2018-01-06T01:49:30.000Z,100.00
2018-01-06T01:51:57.456Z,100.00
2018-01-06T01:54:25.212Z,100.00
2018-01-06T01:56:52.670Z,100.00
2018-01-06T01:59:20.118Z,100.00
2018-01-06T02:01:47.753Z,100.00
2018-01-06T02:04:15.210Z,100.00
2018-01-06T02:06:42.674Z,100.00
2018-01-06T02:09:10.598Z,100.00
2018-01-06T02:11:38.060Z,100.00
2018-01-06T02:14:05.521Z,100.00
2018-01-06T02:16:33.588Z,100.00
2018-01-06T02:19:01.051Z,100.00
2018-01-06T02:21:28.502Z,100.00
2018-01-06T02:23:56.585Z,100.00
2018-01-06T02:26:24.041Z,100.00
2018-01-06T02:28:51.530Z,100.00
2018-01-06T02:31:19.575Z,100.00
2018-01-06T02:33:47.040Z,100.00
2018-01-06T02:36:14.508Z,100.00
2018-01-06T02:38:42.573Z,100.00
2018-01-06T02:41:10.030Z,100.00
2018-01-06T02:43:37.492Z,100.00
2018-01-06T02:46:05.262Z,100.00
2018-01-06T02:48:32.717Z,100.00
2018-01-06T02:51:00.235Z,100.00
2018-01-06T02:53:27.949Z,100.00
2018-01-06T02:55:55.409Z,100.00
2018-01-06T02:58:22.874Z,100.00
2018-01-06T03:00:50.629Z,100.00
2018-01-06T03:03:18.083Z,100.00
2018-01-06T03:05:45.538Z,100.00
2018-01-06T03:08:13.324Z,100.00
2018-01-06T03:10:40.785Z,100.00
2018-01-06T03:13:08.252Z,100.00
2018-01-06T03:15:35.988Z,100.00
2018-01-06T03:18:03.441Z,100.00
2018-01-06T03:20:30.908Z,100.00
2018-01-06T03:22:59.302Z,100.00
2018-01-06T03:25:26.770Z,100.00
2018-01-06T03:27:54.228Z,100.00
2018-01-06T03:30:22.007Z,100.00
2018-01-06T03:32:49.470Z,100.00
2018-01-06T03:35:16.931Z,100.00
2018-01-06T03:37:44.685Z,100.00
2018-01-06T03:40:12.144Z,100.00
2018-01-06T03:42:39.598Z,100.00
2018-01-06T03:45:07.373Z,100.00
2018-01-06T03:47:34.829Z,100.00
2018-01-06T03:50:02.293Z,100.00
2018-01-06T03:52:30.062Z,100.00
2018-01-06T03:54:58.910Z,100.00
2018-01-06T03:57:26.373Z,100.00
2018-01-06T03:59:54.281Z,100.00
2018-01-06T04:02:21.740Z,100.00
2018-01-06T04:04:49.188Z,100.00
2018-01-06T04:07:17.281Z,100.00
2018-01-06T04:09:44.741Z,100.00
2018-01-06T04:12:12.200Z,100.00
2018-01-06T04:14:39.966Z,100.00
2018-01-06T04:17:07.425Z,100.00
2018-01-06T04:19:34.886Z,100.00
2018-01-06T04:22:02.673Z,100.00
2018-01-06T04:24:30.135Z,100.00
2018-01-06T04:26:57.588Z,100.00
2018-01-06T04:29:25.327Z,100.00
2018-01-06T04:31:52.784Z,100.00
2018-01-06T04:34:20.235Z,100.00
2018-01-06T04:36:47.953Z,100.00
2018-01-06T04:39:15.405Z,100.00
2018-01-06T04:41:42.858Z,100.00
2018-01-06T04:44:10.662Z,100.00
2018-01-06T04:46:38.118Z,100.00
2018-01-06T04:49:05.571Z,100.00
2018-01-06T04:51:34.017Z,100.00
2018-01-06T04:54:01.476Z,100.00
2018-01-06T04:56:28.932Z,100.00
2018-01-06T04:58:56.702Z,100.00
2018-01-06T05:01:24.165Z,100.00
2018-01-06T05:03:51.624Z,100.00
2018-01-06T05:06:19.690Z,100.00
2018-01-06T05:08:47.161Z,100.00
2018-01-06T05:11:14.625Z,100.00
2018-01-06T05:13:42.441Z,100.00
2018-01-06T05:16:09.887Z,100.00
2018-01-06T05:18:37.344Z,100.00
2018-01-06T05:21:05.068Z,100.00
2018-01-06T05:23:32.525Z,100.00
2018-01-06T05:25:59.989Z,100.00
2018-01-06T05:28:27.673Z,100.00
2018-01-06T05:30:55.128Z,100.00
2018-01-06T05:33:22.584Z,100.00
2018-01-06T05:35:50.434Z,100.00
2018-01-06T05:38:17.888Z,100.00
2018-01-06T05:40:45.338Z,100.00
2018-01-06T05:43:13.142Z,100.00
2018-01-06T05:45:40.601Z,100.00
2018-01-06T05:48:08.063Z,100.00
2018-01-06T05:50:35.807Z,100.00
2018-01-06T05:53:03.979Z,100.00
2018-01-06T05:55:31.443Z,100.00
2018-01-06T05:57:59.421Z,100.00
2018-01-06T06:00:26.887Z,100.00
2018-01-06T06:02:54.350Z,100.00
2018-01-06T06:05:22.112Z,100.00
2018-01-06T06:07:49.571Z,100.00
2018-01-06T06:10:17.034Z,100.00
2018-01-06T06:12:44.921Z,100.00
2018-01-06T06:15:12.376Z,100.00
2018-01-06T06:17:39.837Z,100.00
2018-01-06T06:20:08.421Z,100.00
2018-01-06T06:22:35.879Z,100.00
2018-01-06T06:25:03.338Z,100.00
2018-01-06T06:27:30.973Z,100.00
2018-01-06T06:29:58.425Z,100.00
2018-01-06T06:32:25.869Z,100.00
2018-01-06T06:34:53.541Z,100.00
2018-01-06T06:37:20.997Z,100.00
2018-01-06T06:39:48.444Z,100.00
2018-01-06T06:42:16.220Z,100.00
2018-01-06T06:44:43.699Z,100.00
2018-01-06T06:47:11.159Z,100.00
2018-01-06T06:49:39.158Z,100.00
2018-01-06T06:52:06.615Z,100.00
2018-01-06T06:54:34.501Z,100.00
2018-01-06T06:57:02.768Z,100.00
2018-01-06T06:59:30.225Z,100.00
2018-01-06T07:01:57.677Z,100.00
2018-01-06T07:04:25.449Z,100.00
2018-01-06T07:06:52.898Z,100.00
2018-01-06T07:09:20.341Z,100.00
2018-01-06T07:11:48.165Z,100.00
2018-01-06T07:14:15.624Z,100.00
2018-01-06T07:16:43.086Z,100.00
2018-01-06T07:19:10.830Z,100.00
2018-01-06T07:21:38.289Z,100.00
2018-01-06T07:24:05.773Z,100.00
2018-01-06T07:26:33.816Z,100.00
2018-01-06T07:29:01.268Z,100.00
2018-01-06T07:31:28.717Z,100.00
2018-01-06T07:33:56.502Z,100.00
2018-01-06T07:36:23.953Z,100.00
2018-01-06T07:38:51.413Z,100.00
2018-01-06T07:41:19.226Z,100.00
2018-01-06T07:43:46.681Z,100.00
2018-01-06T07:46:14.136Z,100.00
2018-01-06T07:48:41.925Z,100.00
2018-01-06T07:51:09.349Z,100.00
2018-01-06T07:53:36.813Z,100.00
2018-01-06T07:56:05.178Z,100.00
2018-01-06T07:58:32.644Z,100.00
2018-01-06T08:01:00.114Z,100.00
2018-01-06T08:03:28.183Z,100.00
2018-01-06T08:05:55.639Z,100.00
2018-01-06T08:08:23.181Z,100.00
2018-01-06T08:10:51.179Z,100.00
2018-01-06T08:13:18.637Z,100.00
2018-01-06T08:15:46.091Z,100.00
2018-01-06T08:18:13.853Z,100.00
2018-01-06T08:20:41.306Z,100.00
2018-01-06T08:23:08.782Z,100.00
2018-01-06T08:25:36.552Z,100.00
2018-01-06T08:28:04.018Z,100.00
2018-01-06T08:30:31.480Z,100.00
2018-01-06T08:32:59.415Z,100.00
2018-01-06T08:35:26.876Z,100.00
2018-01-06T08:37:54.331Z,100.00
2018-01-06T08:40:22.239Z,100.00
2018-01-06T08:42:49.758Z,100.00
2018-01-06T08:45:17.208Z,100.00
2018-01-06T08:47:45.224Z,100.00
2018-01-06T08:50:12.697Z,100.00
2018-01-06T08:52:40.159Z,100.00
2018-01-06T08:55:07.886Z,100.00
2018-01-06T08:57:38.805Z,100.00
2018-01-06T09:00:06.260Z,100.00
2018-01-06T09:02:33.981Z,100.00
2018-01-06T09:05:01.450Z,100.00
2018-01-06T09:07:28.909Z,100.00
2018-01-06T09:09:56.660Z,100.00
2018-01-06T09:12:24.136Z,100.00
2018-01-06T09:14:51.593Z,100.00
2018-01-06T09:17:19.346Z,100.00
2018-01-06T09:19:46.840Z,100.00
2018-01-06T09:22:14.308Z,100.00
2018-01-06T09:24:42.040Z,100.00
2018-01-06T09:27:09.494Z,100.00
2018-01-06T09:29:36.948Z,100.00
2018-01-06T09:32:04.721Z,100.00
2018-01-06T09:34:32.189Z,100.00
2018-01-06T09:36:59.658Z,100.00
2018-01-06T09:39:27.400Z,100.00
2018-01-06T09:41:54.860Z,100.00
2018-01-06T09:44:22.318Z,100.00
2018-01-06T09:46:50.098Z,100.00
2018-01-06T09:49:17.568Z,100.00
2018-01-06T09:51:45.030Z,100.00
2018-01-06T09:54:12.785Z,100.00
2018-01-06T09:56:40.262Z,100.00
2018-01-06T09:59:08.080Z,100.00
2018-01-06T10:01:36.089Z,100.00
2018-01-06T10:04:03.545Z,100.00
2018-01-06T10:06:31.009Z,100.00
2018-01-06T10:08:59.086Z,100.00
2018-01-06T10:11:26.541Z,100.00
2018-01-06T10:13:54.006Z,100.00
2018-01-06T10:16:21.770Z,100.00
2018-01-06T10:18:49.238Z,100.00
2018-01-06T10:21:16.699Z,100.00
2018-01-06T10:23:44.761Z,100.00
2018-01-06T10:26:12.218Z,100.00
2018-01-06T10:28:39.686Z,100.00
2018-01-06T10:31:07.764Z,100.00
2018-01-06T10:33:35.209Z,100.00
2018-01-06T10:36:02.669Z,100.00
2018-01-06T10:38:30.754Z,100.00
2018-01-06T10:40:58.224Z,100.00
2018-01-06T10:43:25.682Z,100.00
2018-01-06T10:45:54.056Z,100.00
2018-01-06T10:48:21.518Z,100.00
2018-01-06T10:50:48.978Z,99.15
2018-01-06T10:53:16.741Z,100.00
2018-01-06T10:55:44.728Z,100.00
2018-01-06T10:58:12.190Z,99.47
2018-01-06T11:00:47.104Z,99.06
2018-01-06T11:03:14.566Z,96.04
2018-01-06T11:05:42.073Z,96.12
2018-01-06T11:08:09.801Z,95.12
2018-01-06T11:10:37.260Z,90.50
2018-01-06T11:13:04.725Z,89.44
2018-01-06T11:15:32.490Z,91.33
2018-01-06T11:17:59.953Z,85.06
2018-01-06T11:20:27.405Z,83.09
2018-01-06T11:22:55.173Z,81.67
2018-01-06T11:25:22.635Z,80.86
2018-01-06T11:27:50.091Z,83.55
2018-01-06T11:30:17.853Z,80.98
2018-01-06T11:32:45.305Z,79.74
2018-01-06T11:35:12.753Z,74.92
2018-01-06T11:37:40.540Z,73.32
2018-01-06T11:40:08.004Z,71.97
2018-01-06T11:42:35.457Z,70.23
2018-01-06T11:45:03.528Z,75.88
2018-01-06T11:47:31.004Z,77.44
2018-01-06T11:49:58.457Z,78.12
2018-01-06T11:52:26.172Z,78.97
2018-01-06T11:54:53.637Z,75.17
2018-01-06T11:57:21.093Z,68.91
2018-01-06T11:59:49.217Z,69.32
2018-01-06T12:02:17.057Z,66.43
2018-01-06T12:04:44.510Z,66.23
2018-01-06T12:07:12.514Z,65.68
2018-01-06T12:09:39.973Z,69.57
2018-01-06T12:12:07.427Z,70.32
2018-01-06T12:14:35.452Z,70.19
2018-01-06T12:17:02.903Z,76.09
2018-01-06T12:19:30.362Z,72.08
2018-01-06T12:21:58.233Z,69.68
2018-01-06T12:24:25.689Z,72.27
2018-01-06T12:26:53.145Z,74.08
2018-01-06T12:29:20.960Z,71.29
2018-01-06T12:31:48.417Z,70.05
2018-01-06T12:34:15.865Z,73.46
2018-01-06T12:43:27.544Z,67.84
2018-01-06T12:45:54.985Z,69.34
2018-01-06T12:48:22.433Z,68.63
2018-01-06T12:50:50.244Z,67.84
2018-01-06T12:53:17.696Z,68.13
2018-01-06T12:55:45.137Z,65.77
2018-01-06T12:58:12.905Z,65.82
2018-01-06T13:00:40.366Z,63.69
2018-01-06T13:03:08.533Z,60.01
2018-01-06T13:05:36.231Z,61.07
2018-01-06T13:08:03.690Z,63.69
2018-01-06T13:10:31.149Z,64.16
2018-01-06T13:12:58.912Z,67.28
2018-01-06T13:15:26.360Z,67.61
2018-01-06T13:17:53.808Z,64.67
2018-01-06T13:20:21.473Z,67.32
2018-01-06T13:22:48.916Z,66.20
2018-01-06T13:25:16.364Z,69.31
2018-01-06T13:27:44.301Z,67.52
2018-01-06T13:30:11.752Z,71.74
2018-01-06T13:32:39.195Z,71.90
2018-01-06T13:35:06.962Z,71.57
2018-01-06T13:37:34.411Z,73.55
2018-01-06T13:40:01.857Z,74.73
2018-01-06T13:42:29.597Z,73.21
2018-01-06T13:44:57.050Z,73.81
2018-01-06T13:47:24.501Z,71.84
2018-01-06T13:49:53.276Z,67.16
2018-01-06T13:52:20.741Z,71.10
2018-01-06T13:54:48.209Z,67.59
2018-01-06T13:57:15.961Z,70.59
2018-01-06T13:59:43.473Z,67.65
2018-01-06T14:02:10.925Z,66.70
2018-01-06T14:04:39.573Z,74.10
2018-01-06T14:07:07.033Z,70.50
2018-01-06T14:09:34.491Z,70.16
2018-01-06T14:12:02.286Z,67.58
2018-01-06T14:14:29.750Z,68.36
2018-01-06T14:16:57.198Z,65.62
2018-01-06T14:19:24.954Z,71.02
2018-01-06T14:21:52.412Z,67.97
2018-01-06T14:24:19.867Z,64.88
2018-01-06T14:26:48.241Z,67.51
2018-01-06T14:29:15.694Z,69.34
2018-01-06T14:31:43.140Z,68.86
2018-01-06T14:34:10.937Z,71.13
2018-01-06T14:36:38.395Z,71.38
2018-01-06T14:39:05.857Z,71.66
2018-01-06T14:41:33.622Z,73.21
2018-01-06T14:44:01.082Z,75.74
2018-01-06T14:46:28.542Z,72.33
2018-01-06T14:48:56.309Z,75.04
2018-01-06T14:51:23.764Z,73.22
2018-01-06T14:53:51.462Z,75.02
2018-01-06T14:56:19.926Z,77.50
2018-01-06T14:58:47.601Z,78.05
2018-01-06T15:01:15.433Z,80.31
2018-01-06T15:03:43.216Z,80.35
2018-01-06T15:06:11.682Z,84.86
2018-01-06T15:08:39.155Z,86.42
2018-01-06T15:11:07.144Z,89.41
2018-01-06T15:13:34.596Z,90.16
2018-01-06T15:16:02.060Z,92.60
2018-01-06T15:18:29.820Z,92.00
2018-01-06T15:20:57.326Z,93.91
2018-01-06T15:23:24.794Z,94.35
2018-01-06T15:25:53.133Z,94.37
2018-01-06T15:28:20.585Z,96.98
2018-01-06T15:30:48.043Z,97.37
2018-01-06T15:33:15.812Z,98.68
2018-01-06T15:35:43.264Z,98.78
2018-01-06T15:38:10.743Z,100.00
2018-01-06T15:40:38.496Z,100.00
2018-01-06T15:43:06.137Z,100.00
2018-01-06T15:45:33.601Z,100.00
2018-01-06T15:48:01.557Z,100.00
2018-01-06T15:50:29.027Z,100.00
2018-01-06T15:52:56.505Z,100.00
2018-01-06T15:55:24.142Z,100.00
2018-01-06T15:57:51.645Z,100.00
2018-01-06T16:00:19.117Z,100.00
2018-01-06T16:02:47.172Z,100.00
2018-01-06T16:05:14.653Z,100.00
2018-01-06T16:07:42.790Z,100.00
2018-01-06T16:10:10.514Z,100.00
2018-01-06T16:12:37.979Z,100.00
2018-01-06T16:15:05.443Z,100.00
2018-01-06T16:17:33.461Z,100.00
2018-01-06T16:20:00.941Z,100.00
2018-01-06T16:22:28.391Z,100.00
2018-01-06T16:24:56.459Z,100.00
2018-01-06T16:27:23.914Z,100.00
2018-01-06T16:29:51.637Z,100.00
2018-01-06T16:32:19.457Z,100.00
2018-01-06T16:34:46.937Z,100.00
2018-01-06T16:37:14.396Z,100.00
2018-01-06T16:39:42.338Z,100.00
2018-01-06T16:42:09.785Z,100.00
2018-01-06T16:44:37.240Z,100.00
2018-01-06T16:47:04.910Z,100.00
2018-01-06T16:49:32.372Z,100.00
2018-01-06T16:51:59.839Z,100.00
2018-01-06T16:54:27.834Z,100.00
2018-01-06T16:56:55.297Z,100.00
2018-01-06T16:59:22.759Z,100.00
2018-01-06T17:01:50.581Z,100.00
2018-01-06T17:04:18.036Z,100.00
2018-01-06T17:06:45.502Z,100.00
2018-01-06T17:09:13.836Z,100.00
2018-01-06T17:11:41.382Z,100.00
2018-01-06T17:14:08.839Z,100.00
2018-01-06T17:16:36.801Z,100.00
2018-01-06T17:19:04.257Z,100.00
2018-01-06T17:21:31.986Z,100.00
2018-01-06T17:23:59.811Z,100.00
2018-01-06T17:26:27.351Z,100.00
2018-01-06T17:28:54.801Z,100.00
2018-01-06T17:31:22.637Z,100.00
2018-01-06T17:33:50.194Z,100.00
2018-01-06T17:36:17.667Z,100.00
2018-01-06T17:38:46.714Z,100.00
2018-01-06T17:41:14.187Z,100.00
2018-01-06T17:43:41.652Z,100.00
2018-01-06T17:46:09.398Z,100.00
2018-01-06T17:48:36.856Z,100.00
2018-01-06T17:51:04.330Z,100.00
2018-01-06T17:53:32.094Z,100.00
2018-01-06T17:55:59.550Z,100.00
2018-01-06T17:58:27.030Z,100.00
2018-01-06T18:00:55.372Z,100.00
2018-01-06T18:03:22.838Z,100.00
2018-01-06T18:05:50.300Z,100.00
2018-01-06T18:08:18.076Z,100.00
2018-01-06T18:10:46.225Z,100.00
2018-01-06T18:13:13.707Z,100.00
2018-01-06T18:15:41.664Z,100.00
2018-01-06T18:18:09.122Z,100.00
2018-01-06T18:20:36.583Z,100.00
2018-01-06T18:23:04.369Z,100.00
2018-01-06T18:25:31.826Z,100.00
2018-01-06T18:27:59.287Z,100.00
2018-01-06T18:30:27.060Z,100.00
2018-01-06T18:32:54.521Z,100.00
2018-01-06T18:35:21.997Z,100.00
2018-01-06T18:37:49.810Z,100.00
2018-01-06T18:40:17.271Z,100.00
2018-01-06T18:42:44.732Z,100.00
2018-01-06T18:45:12.709Z,100.00
2018-01-06T18:47:40.173Z,100.00
2018-01-06T18:50:07.633Z,100.00
2018-01-06T18:52:35.429Z,100.00
2018-01-06T18:55:02.890Z,100.00
2018-01-06T18:57:30.364Z,100.00
2018-01-06T18:59:58.116Z,100.00
2018-01-06T19:02:25.577Z,100.00
2018-01-06T19:04:53.051Z,100.00
2018-01-06T19:07:20.808Z,100.00
2018-01-06T19:09:48.289Z,100.00
2018-01-06T19:12:16.420Z,100.00
2018-01-06T19:14:44.413Z,100.00
2018-01-06T19:17:11.865Z,100.00
2018-01-06T19:19:40.297Z,100.00
2018-01-06T19:22:08.083Z,100.00
2018-01-06T19:24:35.534Z,100.00
2018-01-06T19:27:03.197Z,100.00
2018-01-06T19:29:31.022Z,100.00
2018-01-06T19:31:58.483Z,100.00
2018-01-06T19:34:26.161Z,100.00
2018-01-06T19:36:54.625Z,100.00
2018-01-06T19:39:22.476Z,100.00
2018-01-06T19:41:49.934Z,100.00
2018-01-06T19:44:18.222Z,100.00
2018-01-06T19:46:46.470Z,100.00
2018-01-06T19:49:15.040Z,100.00
2018-01-06T19:51:43.367Z,100.00
2018-01-06T19:54:10.892Z,100.00
2018-01-06T19:56:38.382Z,100.00
2018-01-06T19:59:06.385Z,100.00
2018-01-06T20:01:34.676Z,100.00
2018-01-06T20:04:02.746Z,100.00
2018-01-06T20:06:30.582Z,100.00
2018-01-06T20:08:58.062Z,100.00
2018-01-06T20:11:25.997Z,100.00
2018-01-06T20:13:56.041Z,100.00
2018-01-06T20:16:24.759Z,100.00
2018-01-06T20:18:52.242Z,100.00
2018-01-06T20:21:20.288Z,100.00
2018-01-06T20:23:48.216Z,100.00
2018-01-06T20:26:16.156Z,100.00
2018-01-06T20:28:44.545Z,100.00
2018-01-06T20:31:12.001Z,100.00
2018-01-06T20:33:39.467Z,100.00
2018-01-06T20:36:08.094Z,100.00
2018-01-06T20:38:35.604Z,100.00
2018-01-06T20:41:03.341Z,100.00
2018-01-06T20:43:31.104Z,100.00
2018-01-06T20:45:58.564Z,100.00
2018-01-06T20:48:26.106Z,100.00
2018-01-06T20:50:54.100Z,100.00
2018-01-06T20:53:21.577Z,100.00
2018-01-06T20:55:49.033Z,100.00
2018-01-06T20:58:17.687Z,100.00
2018-01-06T21:00:45.846Z,100.00
2018-01-06T21:03:13.308Z,100.00
2018-01-06T21:05:41.616Z,100.00
2018-01-06T21:08:09.161Z,100.00
2018-01-06T21:10:37.500Z,100.00
2018-01-06T21:13:05.222Z,100.00
2018-01-06T21:15:33.695Z,100.00
2018-01-06T21:18:01.149Z,100.00
2018-01-06T21:20:29.150Z,100.00
2018-01-06T21:22:56.604Z,100.00
2018-01-06T21:25:25.022Z,100.00
2018-01-06T21:27:53.082Z,100.00
2018-01-06T21:30:20.545Z,100.00
2018-01-06T21:32:48.004Z,100.00
2018-01-06T21:35:16.041Z,100.00
2018-01-06T21:37:43.590Z,100.00
2018-01-06T21:40:11.071Z,100.00
2018-01-06T21:42:39.090Z,100.00
2018-01-06T21:45:06.594Z,100.00
2018-01-06T21:47:34.114Z,100.00
2018-01-06T21:50:01.894Z,100.00
2018-01-06T21:52:29.353Z,100.00
2018-01-06T21:54:56.822Z,100.00
2018-01-06T21:57:24.426Z,100.00
2018-01-06T21:59:51.916Z,100.00
2018-01-06T22:02:19.409Z,100.00
2018-01-06T22:04:47.401Z,100.00
2018-01-06T22:07:14.944Z,100.00
2018-01-06T22:09:42.396Z,100.00
2018-01-06T22:12:10.713Z,100.00
2018-01-06T22:14:38.187Z,100.00
2018-01-06T22:17:06.025Z,100.00
2018-01-06T22:19:33.904Z,100.00
2018-01-06T22:22:01.908Z,100.00
2018-01-06T22:24:29.937Z,100.00
2018-01-06T22:26:57.933Z,100.00
2018-01-06T22:29:25.721Z,100.00
2018-01-06T22:31:53.725Z,100.00
2018-01-06T22:34:21.549Z,100.00
2018-01-06T22:36:49.097Z,100.00
2018-01-06T22:39:16.644Z,100.00
2018-01-06T22:41:44.838Z,100.00
2018-01-06T22:44:12.290Z,100.00
2018-01-06T22:46:39.754Z,100.00
2018-01-06T22:49:08.149Z,100.00
2018-01-06T22:51:35.822Z,100.00
2018-01-06T22:54:03.989Z,100.00
2018-01-06T22:56:32.001Z,100.00
2018-01-06T22:58:59.720Z,100.00
2018-01-06T23:01:27.205Z,100.00
2018-01-06T23:03:55.377Z,100.00
2018-01-06T23:06:23.119Z,100.00
2018-01-06T23:08:50.765Z,100.00
2018-01-06T23:11:19.321Z,100.00
2018-01-06T23:13:47.094Z,100.00
2018-01-06T23:16:14.576Z,100.00
2018-01-06T23:18:43.069Z,100.00
2018-01-06T23:21:10.736Z,100.00
2018-01-06T23:23:38.189Z,100.00
2018-01-06T23:26:06.190Z,100.00
2018-01-06T23:28:33.654Z,100.00
2018-01-06T23:31:01.125Z,100.00
2018-01-06T23:33:28.885Z,100.00
2018-01-06T23:35:56.345Z,100.00
2018-01-06T23:38:23.805Z,100.00
2018-01-06T23:40:51.569Z,100.00
2018-01-06T23:43:19.031Z,100.00
2018-01-06T23:45:46.499Z,100.00
2018-01-06T23:48:14.237Z,100.00
2018-01-06T23:50:41.700Z,100.00
2018-01-06T23:53:09.161Z,100.00
2018-01-06T23:55:37.246Z,100.00
2018-01-06T23:58:04.712Z,100.00
